sensor_id;sensor_type;location;lat;lon;timestamp;P1;durP1;ratioP1;P2;durP2;ratioP2
59300;SDS011;45073;52.740;6.784;2022-12-20T00:00:47;9.35;;;3.45;;
59300;SDS011;45073;52.740;6.784;2022-12-20T00:03:13;8.32;;;3.30;;
59300;SDS011;45073;52.740;6.784;2022-12-20T00:05:39;10.35;;;3.47;;
59300;SDS011;45073;52.740;6.784;2022-12-20T00:08:07;8.73;;;3.30;;
59300;SDS011;45073;52.740;6.784;2022-12-20T00:10:34;10.02;;;3.35;;
59300;SDS011;45073;52.740;6.784;2022-12-20T00:13:01;9.20;;;3.20;;
59300;SDS011;45073;52.740;6.784;2022-12-20T00:15:27;7.35;;;3.47;;
59300;SDS011;45073;52.740;6.784;2022-12-20T00:17:52;9.88;;;3.70;;
59300;SDS011;45073;52.740;6.784;2022-12-20T00:20:18;10.35;;;4.93;;
59300;SDS011;45073;52.740;6.784;2022-12-20T00:22:44;9.48;;;3.25;;
59300;SDS011;45073;52.740;6.784;2022-12-20T00:25:09;8.90;;;3.00;;
59300;SDS011;45073;52.740;6.784;2022-12-20T00:27:35;8.02;;;3.33;;
59300;SDS011;45073;52.740;6.784;2022-12-20T00:30:01;7.75;;;3.60;;
59300;SDS011;45073;52.740;6.784;2022-12-20T00:32:27;7.40;;;3.00;;
59300;SDS011;45073;52.740;6.784;2022-12-20T00:34:52;10.95;;;4.28;;
59300;SDS011;45073;52.740;6.784;2022-12-20T00:37:18;6.75;;;3.30;;
59300;SDS011;45073;52.740;6.784;2022-12-20T00:39:44;9.05;;;3.63;;
59300;SDS011;45073;52.740;6.784;2022-12-20T00:42:09;8.02;;;3.28;;
59300;SDS011;45073;52.740;6.784;2022-12-20T00:44:35;7.00;;;3.20;;
59300;SDS011;45073;52.740;6.784;2022-12-20T00:47:00;8.30;;;3.38;;
59300;SDS011;45073;52.740;6.784;2022-12-20T00:49:26;8.25;;;3.33;;
59300;SDS011;45073;52.740;6.784;2022-12-20T00:51:51;8.32;;;2.95;;
59300;SDS011;45073;52.740;6.784;2022-12-20T00:54:17;10.18;;;3.15;;
59300;SDS011;45073;52.740;6.784;2022-12-20T00:56:43;8.00;;;3.47;;
59300;SDS011;45073;52.740;6.784;2022-12-20T00:59:08;8.43;;;3.08;;
59300;SDS011;45073;52.740;6.784;2022-12-20T01:01:34;9.98;;;3.92;;
59300;SDS011;45073;52.740;6.784;2022-12-20T01:04:00;8.63;;;2.95;;
59300;SDS011;45073;52.740;6.784;2022-12-20T01:06:27;7.40;;;3.13;;
59300;SDS011;45073;52.740;6.784;2022-12-20T01:08:53;8.27;;;3.45;;
59300;SDS011;45073;52.740;6.784;2022-12-20T01:11:26;8.88;;;3.03;;
59300;SDS011;45073;52.740;6.784;2022-12-20T01:13:54;7.13;;;3.30;;
59300;SDS011;45073;52.740;6.784;2022-12-20T01:16:22;7.97;;;2.83;;
59300;SDS011;45073;52.740;6.784;2022-12-20T01:18:58;8.20;;;3.13;;
59300;SDS011;45073;52.740;6.784;2022-12-20T01:21:25;8.52;;;3.42;;
59300;SDS011;45073;52.740;6.784;2022-12-20T01:23:51;9.35;;;3.28;;
59300;SDS011;45073;52.740;6.784;2022-12-20T01:26:18;7.13;;;2.83;;
59300;SDS011;45073;52.740;6.784;2022-12-20T01:28:47;9.68;;;3.17;;
59300;SDS011;45073;52.740;6.784;2022-12-20T01:31:15;8.45;;;3.25;;
59300;SDS011;45073;52.740;6.784;2022-12-20T01:33:42;9.68;;;3.20;;
59300;SDS011;45073;52.740;6.784;2022-12-20T01:36:16;9.23;;;2.80;;
59300;SDS011;45073;52.740;6.784;2022-12-20T01:38:44;6.32;;;2.45;;
59300;SDS011;45073;52.740;6.784;2022-12-20T01:41:14;8.18;;;3.35;;
59300;SDS011;45073;52.740;6.784;2022-12-20T01:46:14;8.57;;;2.85;;
59300;SDS011;45073;52.740;6.784;2022-12-20T01:48:41;7.07;;;2.83;;
59300;SDS011;45073;52.740;6.784;2022-12-20T01:51:08;8.32;;;3.10;;
59300;SDS011;45073;52.740;6.784;2022-12-20T01:53:35;8.35;;;3.10;;
59300;SDS011;45073;52.740;6.784;2022-12-20T01:56:02;8.20;;;3.65;;
59300;SDS011;45073;52.740;6.784;2022-12-20T01:58:30;6.97;;;3.15;;
59300;SDS011;45073;52.740;6.784;2022-12-20T02:00:56;8.25;;;2.63;;
59300;SDS011;45073;52.740;6.784;2022-12-20T02:03:22;7.40;;;2.90;;
59300;SDS011;45073;52.740;6.784;2022-12-20T02:05:48;6.90;;;2.50;;
59300;SDS011;45073;52.740;6.784;2022-12-20T02:08:14;9.25;;;3.10;;
59300;SDS011;45073;52.740;6.784;2022-12-20T02:10:57;7.38;;;2.75;;
59300;SDS011;45073;52.740;6.784;2022-12-20T02:16:06;8.95;;;2.45;;
59300;SDS011;45073;52.740;6.784;2022-12-20T02:18:40;9.40;;;3.80;;
59300;SDS011;45073;52.740;6.784;2022-12-20T02:26:46;7.90;;;2.58;;
59300;SDS011;45073;52.740;6.784;2022-12-20T02:29:25;6.93;;;2.58;;
59300;SDS011;45073;52.740;6.784;2022-12-20T02:32:16;6.53;;;2.45;;
59300;SDS011;45073;52.740;6.784;2022-12-20T02:34:49;8.45;;;2.90;;
59300;SDS011;45073;52.740;6.784;2022-12-20T02:37:15;6.82;;;2.75;;
59300;SDS011;45073;52.740;6.784;2022-12-20T02:39:41;8.38;;;2.75;;
59300;SDS011;45073;52.740;6.784;2022-12-20T02:42:10;7.03;;;3.15;;
59300;SDS011;45073;52.740;6.784;2022-12-20T02:44:40;5.88;;;2.55;;
59300;SDS011;45073;52.740;6.784;2022-12-20T02:47:33;6.72;;;2.58;;
59300;SDS011;45073;52.740;6.784;2022-12-20T02:50:12;7.35;;;2.55;;
59300;SDS011;45073;52.740;6.784;2022-12-20T02:52:42;7.00;;;2.70;;
59300;SDS011;45073;52.740;6.784;2022-12-20T02:55:08;6.43;;;2.60;;
59300;SDS011;45073;52.740;6.784;2022-12-20T02:57:48;7.63;;;2.90;;
59300;SDS011;45073;52.740;6.784;2022-12-20T03:00:20;8.43;;;2.88;;
59300;SDS011;45073;52.740;6.784;2022-12-20T03:02:47;6.85;;;2.85;;
59300;SDS011;45073;52.740;6.784;2022-12-20T03:05:33;7.50;;;2.83;;
59300;SDS011;45073;52.740;6.784;2022-12-20T03:08:03;7.28;;;2.63;;
59300;SDS011;45073;52.740;6.784;2022-12-20T03:10:29;6.35;;;2.65;;
59300;SDS011;45073;52.740;6.784;2022-12-20T03:12:55;8.35;;;2.90;;
59300;SDS011;45073;52.740;6.784;2022-12-20T03:15:20;7.32;;;3.00;;
59300;SDS011;45073;52.740;6.784;2022-12-20T03:17:46;7.97;;;3.28;;
59300;SDS011;45073;52.740;6.784;2022-12-20T03:20:12;8.00;;;2.97;;
59300;SDS011;45073;52.740;6.784;2022-12-20T03:22:37;8.52;;;3.30;;
59300;SDS011;45073;52.740;6.784;2022-12-20T03:25:03;7.47;;;2.60;;
59300;SDS011;45073;52.740;6.784;2022-12-20T03:27:29;6.45;;;2.60;;
59300;SDS011;45073;52.740;6.784;2022-12-20T03:29:55;7.43;;;3.03;;
59300;SDS011;45073;52.740;6.784;2022-12-20T03:32:21;7.07;;;2.90;;
59300;SDS011;45073;52.740;6.784;2022-12-20T03:34:47;6.72;;;2.55;;
59300;SDS011;45073;52.740;6.784;2022-12-20T03:37:12;8.27;;;2.63;;
59300;SDS011;45073;52.740;6.784;2022-12-20T03:39:38;6.60;;;2.40;;
59300;SDS011;45073;52.740;6.784;2022-12-20T03:42:04;6.32;;;2.35;;
59300;SDS011;45073;52.740;6.784;2022-12-20T03:44:29;7.88;;;3.25;;
59300;SDS011;45073;52.740;6.784;2022-12-20T03:46:55;8.30;;;2.72;;
59300;SDS011;45073;52.740;6.784;2022-12-20T03:49:20;10.40;;;2.85;;
59300;SDS011;45073;52.740;6.784;2022-12-20T03:51:46;7.55;;;2.72;;
59300;SDS011;45073;52.740;6.784;2022-12-20T03:54:12;7.57;;;2.90;;
59300;SDS011;45073;52.740;6.784;2022-12-20T03:56:37;7.97;;;3.38;;
59300;SDS011;45073;52.740;6.784;2022-12-20T03:59:03;9.60;;;3.13;;
59300;SDS011;45073;52.740;6.784;2022-12-20T04:01:29;7.10;;;3.08;;
59300;SDS011;45073;52.740;6.784;2022-12-20T04:03:55;6.95;;;2.92;;
59300;SDS011;45073;52.740;6.784;2022-12-20T04:06:21;9.10;;;3.05;;
59300;SDS011;45073;52.740;6.784;2022-12-20T04:08:47;8.90;;;3.25;;
59300;SDS011;45073;52.740;6.784;2022-12-20T04:11:14;9.98;;;3.70;;
59300;SDS011;45073;52.740;6.784;2022-12-20T04:13:43;8.45;;;2.97;;
59300;SDS011;45073;52.740;6.784;2022-12-20T04:16:17;7.18;;;3.00;;
59300;SDS011;45073;52.740;6.784;2022-12-20T04:18:45;8.23;;;2.95;;
59300;SDS011;45073;52.740;6.784;2022-12-20T04:21:11;7.18;;;2.90;;
59300;SDS011;45073;52.740;6.784;2022-12-20T04:23:38;9.70;;;3.00;;
59300;SDS011;45073;52.740;6.784;2022-12-20T04:26:06;9.60;;;3.00;;
59300;SDS011;45073;52.740;6.784;2022-12-20T04:28:33;7.72;;;3.05;;
59300;SDS011;45073;52.740;6.784;2022-12-20T04:30:59;8.07;;;3.30;;
59300;SDS011;45073;52.740;6.784;2022-12-20T04:33:26;8.07;;;3.28;;
59300;SDS011;45073;52.740;6.784;2022-12-20T04:35:52;8.43;;;3.22;;
59300;SDS011;45073;52.740;6.784;2022-12-20T04:38:18;11.77;;;3.70;;
59300;SDS011;45073;52.740;6.784;2022-12-20T04:40:47;9.77;;;3.35;;
59300;SDS011;45073;52.740;6.784;2022-12-20T04:43:14;7.82;;;2.95;;
59300;SDS011;45073;52.740;6.784;2022-12-20T04:45:39;5.97;;;2.42;;
59300;SDS011;45073;52.740;6.784;2022-12-20T04:48:05;7.13;;;2.60;;
59300;SDS011;45073;52.740;6.784;2022-12-20T04:50:31;7.20;;;2.92;;
59300;SDS011;45073;52.740;6.784;2022-12-20T04:52:57;8.48;;;3.53;;
59300;SDS011;45073;52.740;6.784;2022-12-20T04:55:41;7.40;;;3.20;;
59300;SDS011;45073;52.740;6.784;2022-12-20T04:58:07;7.85;;;2.97;;
59300;SDS011;45073;52.740;6.784;2022-12-20T05:00:32;7.15;;;3.25;;
59300;SDS011;45073;52.740;6.784;2022-12-20T05:02:58;7.50;;;3.38;;
59300;SDS011;45073;52.740;6.784;2022-12-20T05:05:24;6.70;;;2.78;;
59300;SDS011;45073;52.740;6.784;2022-12-20T05:07:50;9.57;;;2.95;;
59300;SDS011;45073;52.740;6.784;2022-12-20T05:10:17;8.05;;;3.08;;
59300;SDS011;45073;52.740;6.784;2022-12-20T05:12:43;7.55;;;2.70;;
59300;SDS011;45073;52.740;6.784;2022-12-20T05:15:09;7.05;;;2.92;;
59300;SDS011;45073;52.740;6.784;2022-12-20T05:17:35;7.70;;;2.90;;
59300;SDS011;45073;52.740;6.784;2022-12-20T05:20:00;6.60;;;2.88;;
59300;SDS011;45073;52.740;6.784;2022-12-20T05:22:26;10.05;;;3.05;;
59300;SDS011;45073;52.740;6.784;2022-12-20T05:25:11;8.75;;;2.90;;
59300;SDS011;45073;52.740;6.784;2022-12-20T05:27:55;7.13;;;2.72;;
59300;SDS011;45073;52.740;6.784;2022-12-20T05:30:21;6.75;;;2.83;;
59300;SDS011;45073;52.740;6.784;2022-12-20T05:32:48;8.30;;;2.47;;
59300;SDS011;45073;52.740;6.784;2022-12-20T05:35:17;8.88;;;3.17;;
59300;SDS011;45073;52.740;6.784;2022-12-20T05:37:43;7.82;;;3.42;;
59300;SDS011;45073;52.740;6.784;2022-12-20T05:40:09;7.88;;;2.83;;
59300;SDS011;45073;52.740;6.784;2022-12-20T05:42:36;10.38;;;4.00;;
59300;SDS011;45073;52.740;6.784;2022-12-20T05:45:02;6.13;;;2.55;;
59300;SDS011;45073;52.740;6.784;2022-12-20T05:47:28;7.00;;;2.65;;
59300;SDS011;45073;52.740;6.784;2022-12-20T05:49:57;8.68;;;2.78;;
59300;SDS011;45073;52.740;6.784;2022-12-20T05:52:24;7.38;;;2.50;;
59300;SDS011;45073;52.740;6.784;2022-12-20T05:54:50;5.47;;;2.22;;
59300;SDS011;45073;52.740;6.784;2022-12-20T05:57:16;7.68;;;3.58;;
59300;SDS011;45073;52.740;6.784;2022-12-20T05:59:42;8.38;;;2.60;;
59300;SDS011;45073;52.740;6.784;2022-12-20T06:02:08;7.72;;;2.58;;
59300;SDS011;45073;52.740;6.784;2022-12-20T06:04:34;7.15;;;2.40;;
59300;SDS011;45073;52.740;6.784;2022-12-20T06:07:02;7.82;;;2.42;;
59300;SDS011;45073;52.740;6.784;2022-12-20T06:09:29;7.13;;;2.70;;
59300;SDS011;45073;52.740;6.784;2022-12-20T06:11:55;9.60;;;2.80;;
59300;SDS011;45073;52.740;6.784;2022-12-20T06:14:21;6.97;;;2.78;;
59300;SDS011;45073;52.740;6.784;2022-12-20T06:16:46;6.15;;;2.63;;
59300;SDS011;45073;52.740;6.784;2022-12-20T06:19:12;8.98;;;2.53;;
59300;SDS011;45073;52.740;6.784;2022-12-20T06:21:38;8.77;;;2.88;;
59300;SDS011;45073;52.740;6.784;2022-12-20T06:24:05;8.15;;;3.72;;
59300;SDS011;45073;52.740;6.784;2022-12-20T06:26:31;7.50;;;3.30;;
59300;SDS011;45073;52.740;6.784;2022-12-20T06:29:01;6.90;;;3.00;;
59300;SDS011;45073;52.740;6.784;2022-12-20T06:31:27;7.90;;;2.97;;
59300;SDS011;45073;52.740;6.784;2022-12-20T06:33:53;10.95;;;3.10;;
59300;SDS011;45073;52.740;6.784;2022-12-20T06:36:18;9.07;;;3.25;;
59300;SDS011;45073;52.740;6.784;2022-12-20T06:38:44;8.02;;;3.00;;
59300;SDS011;45073;52.740;6.784;2022-12-20T06:41:09;9.65;;;2.80;;
59300;SDS011;45073;52.740;6.784;2022-12-20T06:43:35;7.95;;;2.65;;
59300;SDS011;45073;52.740;6.784;2022-12-20T06:46:01;7.90;;;2.65;;
59300;SDS011;45073;52.740;6.784;2022-12-20T06:48:26;8.63;;;2.88;;
59300;SDS011;45073;52.740;6.784;2022-12-20T06:50:53;7.45;;;2.88;;
59300;SDS011;45073;52.740;6.784;2022-12-20T06:53:18;8.32;;;2.72;;
59300;SDS011;45073;52.740;6.784;2022-12-20T06:55:46;7.28;;;2.80;;
59300;SDS011;45073;52.740;6.784;2022-12-20T06:58:14;9.00;;;2.67;;
59300;SDS011;45073;52.740;6.784;2022-12-20T07:00:40;8.85;;;3.60;;
59300;SDS011;45073;52.740;6.784;2022-12-20T07:03:05;6.82;;;3.05;;
59300;SDS011;45073;52.740;6.784;2022-12-20T07:05:31;9.00;;;3.45;;
59300;SDS011;45073;52.740;6.784;2022-12-20T07:07:57;10.18;;;3.35;;
59300;SDS011;45073;52.740;6.784;2022-12-20T07:10:22;7.72;;;3.47;;
59300;SDS011;45073;52.740;6.784;2022-12-20T07:12:48;6.97;;;3.10;;
59300;SDS011;45073;52.740;6.784;2022-12-20T07:15:14;9.05;;;3.42;;
59300;SDS011;45073;52.740;6.784;2022-12-20T07:17:40;8.25;;;3.42;;
59300;SDS011;45073;52.740;6.784;2022-12-20T07:20:06;9.10;;;3.55;;
59300;SDS011;45073;52.740;6.784;2022-12-20T07:22:32;8.85;;;3.88;;
59300;SDS011;45073;52.740;6.784;2022-12-20T07:24:58;9.43;;;3.72;;
59300;SDS011;45073;52.740;6.784;2022-12-20T07:27:24;9.55;;;4.13;;
59300;SDS011;45073;52.740;6.784;2022-12-20T07:29:50;8.68;;;3.80;;
59300;SDS011;45073;52.740;6.784;2022-12-20T07:32:15;8.18;;;3.88;;
59300;SDS011;45073;52.740;6.784;2022-12-20T07:34:41;8.30;;;3.70;;
59300;SDS011;45073;52.740;6.784;2022-12-20T07:37:07;9.63;;;4.20;;
59300;SDS011;45073;52.740;6.784;2022-12-20T07:39:33;9.30;;;3.67;;
59300;SDS011;45073;52.740;6.784;2022-12-20T07:41:58;8.02;;;3.55;;
59300;SDS011;45073;52.740;6.784;2022-12-20T07:44:24;8.02;;;3.25;;
59300;SDS011;45073;52.740;6.784;2022-12-20T07:46:49;7.78;;;3.30;;
59300;SDS011;45073;52.740;6.784;2022-12-20T07:49:15;7.75;;;3.10;;
59300;SDS011;45073;52.740;6.784;2022-12-20T07:51:51;8.52;;;2.88;;
59300;SDS011;45073;52.740;6.784;2022-12-20T07:54:21;8.82;;;3.33;;
59300;SDS011;45073;52.740;6.784;2022-12-20T07:56:53;7.03;;;3.15;;
59300;SDS011;45073;52.740;6.784;2022-12-20T07:59:27;10.23;;;3.42;;
59300;SDS011;45073;52.740;6.784;2022-12-20T08:01:59;7.47;;;2.80;;
59300;SDS011;45073;52.740;6.784;2022-12-20T08:04:25;9.02;;;4.03;;
59300;SDS011;45073;52.740;6.784;2022-12-20T08:06:54;8.10;;;2.88;;
59300;SDS011;45073;52.740;6.784;2022-12-20T08:09:23;7.95;;;2.80;;
59300;SDS011;45073;52.740;6.784;2022-12-20T08:11:53;7.78;;;2.88;;
59300;SDS011;45073;52.740;6.784;2022-12-20T08:14:19;6.20;;;2.60;;
59300;SDS011;45073;52.740;6.784;2022-12-20T08:16:45;9.70;;;2.80;;
59300;SDS011;45073;52.740;6.784;2022-12-20T08:19:11;8.02;;;2.45;;
59300;SDS011;45073;52.740;6.784;2022-12-20T08:21:36;6.78;;;2.85;;
59300;SDS011;45073;52.740;6.784;2022-12-20T08:24:02;8.43;;;2.70;;
59300;SDS011;45073;52.740;6.784;2022-12-20T08:26:28;9.68;;;3.95;;
59300;SDS011;45073;52.740;6.784;2022-12-20T08:28:54;7.35;;;2.72;;
59300;SDS011;45073;52.740;6.784;2022-12-20T08:31:20;9.32;;;2.45;;
59300;SDS011;45073;52.740;6.784;2022-12-20T08:33:46;6.93;;;2.20;;
59300;SDS011;45073;52.740;6.784;2022-12-20T08:36:12;8.00;;;2.38;;
59300;SDS011;45073;52.740;6.784;2022-12-20T08:38:38;7.30;;;3.10;;
59300;SDS011;45073;52.740;6.784;2022-12-20T08:41:06;6.60;;;2.65;;
59300;SDS011;45073;52.740;6.784;2022-12-20T08:43:35;7.93;;;3.50;;
59300;SDS011;45073;52.740;6.784;2022-12-20T08:46:01;8.43;;;2.80;;
59300;SDS011;45073;52.740;6.784;2022-12-20T08:48:27;6.80;;;3.25;;
59300;SDS011;45073;52.740;6.784;2022-12-20T08:50:57;8.30;;;3.17;;
59300;SDS011;45073;52.740;6.784;2022-12-20T08:53:25;8.50;;;4.10;;
59300;SDS011;45073;52.740;6.784;2022-12-20T08:55:51;7.82;;;3.78;;
59300;SDS011;45073;52.740;6.784;2022-12-20T08:58:17;8.50;;;2.83;;
59300;SDS011;45073;52.740;6.784;2022-12-20T09:00:44;6.68;;;2.60;;
59300;SDS011;45073;52.740;6.784;2022-12-20T09:03:10;6.38;;;2.60;;
59300;SDS011;45073;52.740;6.784;2022-12-20T09:05:44;7.30;;;2.70;;
59300;SDS011;45073;52.740;6.784;2022-12-20T09:08:11;9.52;;;2.75;;
59300;SDS011;45073;52.740;6.784;2022-12-20T09:10:38;9.18;;;2.92;;
59300;SDS011;45073;52.740;6.784;2022-12-20T09:13:03;7.10;;;2.75;;
59300;SDS011;45073;52.740;6.784;2022-12-20T09:15:29;7.47;;;2.90;;
59300;SDS011;45073;52.740;6.784;2022-12-20T09:17:55;8.43;;;4.43;;
59300;SDS011;45073;52.740;6.784;2022-12-20T09:20:22;8.40;;;2.75;;
59300;SDS011;45073;52.740;6.784;2022-12-20T09:22:47;8.10;;;2.97;;
59300;SDS011;45073;52.740;6.784;2022-12-20T09:25:13;7.80;;;3.22;;
59300;SDS011;45073;52.740;6.784;2022-12-20T09:27:39;8.85;;;3.00;;
59300;SDS011;45073;52.740;6.784;2022-12-20T09:30:04;8.60;;;3.00;;
59300;SDS011;45073;52.740;6.784;2022-12-20T09:32:30;8.10;;;3.15;;
59300;SDS011;45073;52.740;6.784;2022-12-20T09:34:56;8.68;;;2.70;;
59300;SDS011;45073;52.740;6.784;2022-12-20T09:37:22;8.05;;;3.55;;
59300;SDS011;45073;52.740;6.784;2022-12-20T09:39:48;8.77;;;3.10;;
59300;SDS011;45073;52.740;6.784;2022-12-20T09:42:14;7.93;;;3.53;;
59300;SDS011;45073;52.740;6.784;2022-12-20T09:44:41;9.27;;;2.67;;
59300;SDS011;45073;52.740;6.784;2022-12-20T09:47:13;6.85;;;2.95;;
59300;SDS011;45073;52.740;6.784;2022-12-20T09:49:43;7.63;;;2.80;;
59300;SDS011;45073;52.740;6.784;2022-12-20T09:57:46;7.80;;;2.65;;
59300;SDS011;45073;52.740;6.784;2022-12-20T10:00:39;6.65;;;2.85;;
59300;SDS011;45073;52.740;6.784;2022-12-20T10:03:17;6.65;;;2.53;;
59300;SDS011;45073;52.740;6.784;2022-12-20T10:05:52;7.55;;;2.55;;
59300;SDS011;45073;52.740;6.784;2022-12-20T10:08:24;9.50;;;3.47;;
59300;SDS011;45073;52.740;6.784;2022-12-20T10:11:08;6.57;;;2.55;;
59300;SDS011;45073;52.740;6.784;2022-12-20T10:13:55;7.75;;;2.92;;
59300;SDS011;45073;52.740;6.784;2022-12-20T10:16:38;7.47;;;2.58;;
59300;SDS011;45073;52.740;6.784;2022-12-20T10:24:22;10.77;;;3.10;;
59300;SDS011;45073;52.740;6.784;2022-12-20T10:26:51;8.35;;;2.85;;
59300;SDS011;45073;52.740;6.784;2022-12-20T10:29:18;6.80;;;2.55;;
59300;SDS011;45073;52.740;6.784;2022-12-20T10:31:45;8.57;;;2.92;;
59300;SDS011;45073;52.740;6.784;2022-12-20T10:34:13;7.97;;;2.40;;
59300;SDS011;45073;52.740;6.784;2022-12-20T10:36:39;8.68;;;3.90;;
59300;SDS011;45073;52.740;6.784;2022-12-20T10:39:06;9.45;;;3.10;;
59300;SDS011;45073;52.740;6.784;2022-12-20T10:41:45;5.72;;;2.45;;
59300;SDS011;45073;52.740;6.784;2022-12-20T10:46:54;6.80;;;2.42;;
59300;SDS011;45073;52.740;6.784;2022-12-20T10:49:28;6.82;;;2.40;;
59300;SDS011;45073;52.740;6.784;2022-12-20T10:54:32;7.10;;;2.42;;
59300;SDS011;45073;52.740;6.784;2022-12-20T10:57:00;7.93;;;2.70;;
59300;SDS011;45073;52.740;6.784;2022-12-20T10:59:37;8.32;;;2.95;;
59300;SDS011;45073;52.740;6.784;2022-12-20T11:07:31;6.25;;;2.50;;
59300;SDS011;45073;52.740;6.784;2022-12-20T11:09:59;7.97;;;2.90;;
59300;SDS011;45073;52.740;6.784;2022-12-20T11:12:27;9.50;;;2.63;;
59300;SDS011;45073;52.740;6.784;2022-12-20T11:17:45;6.55;;;2.42;;
59300;SDS011;45073;52.740;6.784;2022-12-20T11:23:09;7.78;;;2.45;;
59300;SDS011;45073;52.740;6.784;2022-12-20T11:25:57;7.22;;;2.47;;
59300;SDS011;45073;52.740;6.784;2022-12-20T11:28:42;5.68;;;2.17;;
59300;SDS011;45073;52.740;6.784;2022-12-20T11:31:25;6.20;;;2.45;;
59300;SDS011;45073;52.740;6.784;2022-12-20T11:39:33;6.45;;;2.60;;
59300;SDS011;45073;52.740;6.784;2022-12-20T11:51:41;6.30;;;2.67;;
59300;SDS011;45073;52.740;6.784;2022-12-20T11:54:33;8.95;;;3.10;;
59300;SDS011;45073;52.740;6.784;2022-12-20T11:57:26;10.02;;;4.55;;
59300;SDS011;45073;52.740;6.784;2022-12-20T11:59:57;9.27;;;2.80;;
59300;SDS011;45073;52.740;6.784;2022-12-20T12:02:31;7.25;;;3.08;;
59300;SDS011;45073;52.740;6.784;2022-12-20T12:05:26;7.18;;;2.72;;
59300;SDS011;45073;52.740;6.784;2022-12-20T12:07:53;9.48;;;3.20;;
59300;SDS011;45073;52.740;6.784;2022-12-20T12:10:36;8.30;;;3.63;;
59300;SDS011;45073;52.740;6.784;2022-12-20T12:13:13;8.68;;;3.58;;
59300;SDS011;45073;52.740;6.784;2022-12-20T12:15:58;10.30;;;3.33;;
59300;SDS011;45073;52.740;6.784;2022-12-20T12:18:30;9.07;;;3.45;;
59300;SDS011;45073;52.740;6.784;2022-12-20T12:21:02;8.80;;;3.60;;
59300;SDS011;45073;52.740;6.784;2022-12-20T12:23:52;7.15;;;3.25;;
59300;SDS011;45073;52.740;6.784;2022-12-20T12:26:28;11.25;;;3.25;;
59300;SDS011;45073;52.740;6.784;2022-12-20T12:28:57;7.70;;;3.55;;
59300;SDS011;45073;52.740;6.784;2022-12-20T12:31:45;8.88;;;3.42;;
59300;SDS011;45073;52.740;6.784;2022-12-20T12:40:11;8.00;;;3.20;;
59300;SDS011;45073;52.740;6.784;2022-12-20T12:43:12;7.15;;;3.05;;
59300;SDS011;45073;52.740;6.784;2022-12-20T12:46:00;7.07;;;3.13;;
59300;SDS011;45073;52.740;6.784;2022-12-20T12:48:35;8.05;;;3.03;;
59300;SDS011;45073;52.740;6.784;2022-12-20T12:51:04;7.50;;;3.47;;
59300;SDS011;45073;52.740;6.784;2022-12-20T12:53:40;7.10;;;3.67;;
59300;SDS011;45073;52.740;6.784;2022-12-20T13:07:45;8.07;;;3.55;;
59300;SDS011;45073;52.740;6.784;2022-12-20T13:20:41;7.60;;;3.80;;
59300;SDS011;45073;52.740;6.784;2022-12-20T13:23:27;8.40;;;3.83;;
59300;SDS011;45073;52.740;6.784;2022-12-20T13:25:54;9.25;;;4.28;;
59300;SDS011;45073;52.740;6.784;2022-12-20T13:30:47;7.97;;;4.00;;
59300;SDS011;45073;52.740;6.784;2022-12-20T13:33:38;7.40;;;3.67;;
59300;SDS011;45073;52.740;6.784;2022-12-20T13:36:28;9.30;;;4.25;;
59300;SDS011;45073;52.740;6.784;2022-12-20T13:38:58;11.15;;;4.18;;
59300;SDS011;45073;52.740;6.784;2022-12-20T13:41:45;6.97;;;3.35;;
59300;SDS011;45073;52.740;6.784;2022-12-20T13:46:48;8.15;;;3.97;;
59300;SDS011;45073;52.740;6.784;2022-12-20T13:49:33;8.80;;;3.95;;
59300;SDS011;45073;52.740;6.784;2022-12-20T13:54:53;9.98;;;4.03;;
59300;SDS011;45073;52.740;6.784;2022-12-20T13:57:27;9.18;;;3.95;;
59300;SDS011;45073;52.740;6.784;2022-12-20T13:59:56;10.43;;;4.25;;
59300;SDS011;45073;52.740;6.784;2022-12-20T14:02:26;10.65;;;4.18;;
59300;SDS011;45073;52.740;6.784;2022-12-20T14:05:01;15.68;;;4.18;;
59300;SDS011;45073;52.740;6.784;2022-12-20T14:07:30;8.63;;;3.63;;
59300;SDS011;45073;52.740;6.784;2022-12-20T14:09:58;9.43;;;4.38;;
59300;SDS011;45073;52.740;6.784;2022-12-20T14:12:25;8.68;;;4.47;;
59300;SDS011;45073;52.740;6.784;2022-12-20T14:14:52;8.45;;;4.50;;
59300;SDS011;45073;52.740;6.784;2022-12-20T14:22:37;9.75;;;4.78;;
59300;SDS011;45073;52.740;6.784;2022-12-20T14:25:11;9.23;;;4.57;;
59300;SDS011;45073;52.740;6.784;2022-12-20T14:27:41;10.10;;;5.10;;
59300;SDS011;45073;52.740;6.784;2022-12-20T14:30:23;10.40;;;4.95;;
59300;SDS011;45073;52.740;6.784;2022-12-20T14:32:51;8.25;;;4.55;;
59300;SDS011;45073;52.740;6.784;2022-12-20T14:35:18;11.93;;;5.15;;
59300;SDS011;45073;52.740;6.784;2022-12-20T14:37:51;8.75;;;4.65;;
59300;SDS011;45073;52.740;6.784;2022-12-20T14:40:19;9.65;;;4.22;;
59300;SDS011;45073;52.740;6.784;2022-12-20T14:42:45;10.68;;;4.85;;
59300;SDS011;45073;52.740;6.784;2022-12-20T14:47:37;10.65;;;5.05;;
59300;SDS011;45073;52.740;6.784;2022-12-20T14:50:19;10.45;;;4.57;;
59300;SDS011;45073;52.740;6.784;2022-12-20T14:53:00;11.95;;;4.97;;
59300;SDS011;45073;52.740;6.784;2022-12-20T14:55:30;11.05;;;5.18;;
59300;SDS011;45073;52.740;6.784;2022-12-20T14:58:01;9.70;;;4.95;;
59300;SDS011;45073;52.740;6.784;2022-12-20T15:00:54;9.88;;;5.55;;
59300;SDS011;45073;52.740;6.784;2022-12-20T15:03:53;10.48;;;4.70;;
59300;SDS011;45073;52.740;6.784;2022-12-20T15:06:31;11.20;;;4.93;;
59300;SDS011;45073;52.740;6.784;2022-12-20T15:09:07;9.02;;;5.35;;
59300;SDS011;45073;52.740;6.784;2022-12-20T15:11:33;11.48;;;5.18;;
59300;SDS011;45073;52.740;6.784;2022-12-20T15:14:00;10.70;;;5.25;;
59300;SDS011;45073;52.740;6.784;2022-12-20T15:16:28;11.23;;;5.85;;
59300;SDS011;45073;52.740;6.784;2022-12-20T15:18:55;9.18;;;4.70;;
59300;SDS011;45073;52.740;6.784;2022-12-20T15:21:32;12.02;;;5.10;;
59300;SDS011;45073;52.740;6.784;2022-12-20T15:24:07;8.70;;;5.07;;
59300;SDS011;45073;52.740;6.784;2022-12-20T15:26:35;9.10;;;4.85;;
59300;SDS011;45073;52.740;6.784;2022-12-20T15:29:02;10.32;;;5.25;;
59300;SDS011;45073;52.740;6.784;2022-12-20T15:31:28;18.40;;;5.95;;
59300;SDS011;45073;52.740;6.784;2022-12-20T15:33:54;9.98;;;5.57;;
59300;SDS011;45073;52.740;6.784;2022-12-20T15:36:24;9.60;;;5.68;;
59300;SDS011;45073;52.740;6.784;2022-12-20T15:38:52;11.15;;;6.03;;
59300;SDS011;45073;52.740;6.784;2022-12-20T15:43:51;10.77;;;6.35;;
59300;SDS011;45073;52.740;6.784;2022-12-20T15:46:21;10.77;;;5.82;;
59300;SDS011;45073;52.740;6.784;2022-12-20T15:48:47;10.13;;;6.63;;
59300;SDS011;45073;52.740;6.784;2022-12-20T15:51:17;14.48;;;11.75;;
59300;SDS011;45073;52.740;6.784;2022-12-20T15:53:52;10.70;;;6.00;;
59300;SDS011;45073;52.740;6.784;2022-12-20T15:56:19;9.80;;;5.65;;
59300;SDS011;45073;52.740;6.784;2022-12-20T15:58:46;9.35;;;5.90;;
59300;SDS011;45073;52.740;6.784;2022-12-20T16:01:26;11.07;;;6.20;;
59300;SDS011;45073;52.740;6.784;2022-12-20T16:03:55;11.18;;;6.10;;
59300;SDS011;45073;52.740;6.784;2022-12-20T16:06:20;11.45;;;6.50;;
59300;SDS011;45073;52.740;6.784;2022-12-20T16:08:47;9.65;;;6.15;;
59300;SDS011;45073;52.740;6.784;2022-12-20T16:11:16;10.60;;;6.43;;
59300;SDS011;45073;52.740;6.784;2022-12-20T16:13:48;12.23;;;6.78;;
59300;SDS011;45073;52.740;6.784;2022-12-20T16:16:18;11.40;;;6.38;;
59300;SDS011;45073;52.740;6.784;2022-12-20T16:18:46;9.65;;;6.00;;
59300;SDS011;45073;52.740;6.784;2022-12-20T16:21:14;12.25;;;7.18;;
59300;SDS011;45073;52.740;6.784;2022-12-20T16:23:41;10.20;;;6.57;;
59300;SDS011;45073;52.740;6.784;2022-12-20T16:26:11;10.25;;;6.70;;
59300;SDS011;45073;52.740;6.784;2022-12-20T16:28:38;14.13;;;12.68;;
59300;SDS011;45073;52.740;6.784;2022-12-20T16:31:08;12.50;;;7.25;;
59300;SDS011;45073;52.740;6.784;2022-12-20T16:33:46;9.80;;;5.40;;
59300;SDS011;45073;52.740;6.784;2022-12-20T16:36:12;14.07;;;12.63;;
59300;SDS011;45073;52.740;6.784;2022-12-20T16:38:38;11.70;;;7.05;;